createdAt,value
2019-03-06T00:02:18.255Z,76.98
2019-03-06T00:04:48.149Z,76.91
2019-03-06T00:07:17.951Z,76.96
2019-03-06T00:09:47.911Z,77.05
2019-03-06T00:12:17.764Z,77.13
2019-03-06T00:14:48.088Z,77.22
2019-03-06T00:17:18.365Z,77.40
2019-03-06T00:19:48.335Z,77.80
2019-03-06T00:22:18.262Z,77.97
2019-03-06T00:24:49.552Z,78.13
2019-03-06T00:27:19.514Z,78.30
2019-03-06T00:29:49.384Z,78.31
2019-03-06T00:32:19.287Z,78.63
2019-03-06T00:34:50.019Z,78.78
2019-03-06T00:37:20.495Z,78.88
2019-03-06T00:40:01.117Z,79.00
2019-03-06T00:42:34.101Z,78.88
2019-03-06T00:45:04.006Z,79.23
2019-03-06T00:47:34.039Z,79.49
2019-03-06T00:50:04.145Z,79.69
2019-03-06T00:52:34.125Z,79.71
2019-03-06T00:55:04.949Z,79.87
2019-03-06T00:57:35.467Z,80.22
2019-03-06T01:00:07.766Z,80.43
2019-03-06T01:02:39.098Z,80.55
2019-03-06T01:05:09.050Z,80.80
2019-03-06T01:07:40.429Z,80.90
2019-03-06T01:10:11.024Z,81.05
2019-03-06T01:12:42.877Z,81.22
2019-03-06T01:15:13.823Z,81.28
2019-03-06T01:17:43.771Z,81.43
2019-03-06T01:20:14.122Z,81.56
2019-03-06T01:22:44.115Z,81.68
2019-03-06T01:25:14.770Z,81.65
2019-03-06T01:27:47.373Z,81.80
2019-03-06T01:30:18.279Z,81.96
2019-03-06T01:32:50.706Z,82.14
2019-03-06T01:35:29.822Z,82.33
2019-03-06T01:38:12.808Z,82.49
2019-03-06T01:40:52.225Z,82.75
2019-03-06T01:43:30.021Z,82.88
2019-03-06T01:46:00.306Z,83.08
2019-03-06T01:48:30.296Z,83.13
2019-03-06T01:51:00.161Z,83.17
2019-03-06T01:53:30.151Z,83.26
2019-03-06T01:56:00.041Z,83.36
2019-03-06T01:58:30.017Z,83.40
2019-03-06T02:01:00.046Z,83.26
2019-03-06T02:03:30.051Z,83.44
2019-03-06T02:06:00.538Z,83.64
2019-03-06T02:08:30.500Z,83.79
2019-03-06T02:11:00.458Z,83.88
2019-03-06T02:13:30.437Z,84.02
2019-03-06T02:16:00.400Z,83.95
2019-03-06T02:18:30.356Z,84.14
2019-03-06T02:21:00.627Z,84.21
2019-03-06T02:23:31.973Z,84.34
2019-03-06T02:26:02.020Z,84.35
2019-03-06T02:28:32.440Z,84.54
2019-03-06T02:31:02.385Z,84.58
2019-03-06T02:33:32.665Z,84.63
2019-03-06T02:36:02.984Z,84.65
2019-03-06T02:38:32.901Z,84.72
2019-03-06T02:41:02.805Z,84.68
2019-03-06T02:43:33.006Z,84.72
2019-03-06T02:46:03.529Z,84.79
2019-03-06T02:48:33.668Z,84.88
2019-03-06T02:51:03.669Z,84.91
2019-03-06T02:53:33.523Z,85.04
2019-03-06T02:56:03.800Z,85.07
2019-03-06T02:58:39.781Z,85.21
2019-03-06T03:01:23.035Z,85.33
2019-03-06T03:04:18.070Z,85.46
2019-03-06T03:06:54.870Z,85.51
2019-03-06T03:09:24.883Z,85.58
2019-03-06T03:11:55.110Z,85.48
2019-03-06T03:14:25.435Z,85.41
2019-03-06T03:16:55.364Z,85.34
2019-03-06T03:19:25.290Z,85.31
2019-03-06T03:21:55.161Z,85.35
2019-03-06T03:24:25.186Z,85.39
2019-03-06T03:26:55.457Z,85.47
2019-03-06T03:29:25.334Z,85.51
2019-03-06T03:31:55.614Z,85.63
2019-03-06T03:34:25.659Z,85.65
2019-03-06T03:36:55.901Z,85.71
2019-03-06T03:39:26.137Z,85.96
2019-03-06T03:41:56.456Z,86.15
2019-03-06T03:44:26.812Z,86.16
2019-03-06T03:46:56.805Z,86.17
2019-03-06T03:49:27.938Z,86.11
2019-03-06T03:51:58.003Z,86.09
2019-03-06T03:54:27.853Z,86.05
2019-03-06T03:56:57.726Z,86.02
2019-03-06T03:59:27.808Z,86.10
2019-03-06T04:01:57.936Z,86.01
2019-03-06T04:04:29.050Z,85.99
2019-03-06T04:06:58.994Z,85.83
2019-03-06T04:09:28.965Z,85.86
2019-03-06T04:11:59.292Z,85.96
2019-03-06T04:14:29.164Z,86.09
2019-03-06T04:16:59.138Z,86.24
2019-03-06T04:19:29.088Z,86.29
2019-03-06T04:21:58.941Z,86.28
2019-03-06T04:24:29.095Z,86.37
2019-03-06T04:26:59.049Z,86.57
2019-03-06T04:29:28.940Z,86.80
2019-03-06T04:31:58.930Z,86.90
2019-03-06T04:34:28.873Z,86.88
2019-03-06T04:36:58.781Z,87.02
2019-03-06T04:39:28.683Z,87.11
2019-03-06T04:41:58.685Z,87.27
2019-03-06T04:44:28.901Z,87.19
2019-03-06T04:46:59.201Z,87.22
2019-03-06T04:49:29.102Z,87.07
2019-03-06T04:51:59.113Z,86.95
2019-03-06T04:54:29.291Z,86.78
2019-03-06T04:56:59.321Z,86.60
2019-03-06T04:59:29.550Z,86.50
2019-03-06T05:01:59.530Z,86.30
2019-03-06T05:04:29.484Z,86.38
2019-03-06T05:06:59.786Z,86.16
2019-03-06T05:09:29.986Z,86.06
2019-03-06T05:12:00.259Z,85.88
2019-03-06T05:14:30.137Z,85.84
2019-03-06T05:17:19.063Z,85.96
2019-03-06T05:19:49.309Z,86.00
2019-03-06T05:22:19.312Z,85.99
2019-03-06T05:24:49.109Z,85.91
2019-03-06T05:27:19.244Z,85.91
2019-03-06T05:29:49.121Z,85.93
2019-03-06T05:32:33.226Z,85.74
2019-03-06T05:35:14.211Z,85.60
2019-03-06T05:37:50.878Z,85.59
2019-03-06T05:40:20.814Z,85.53
2019-03-06T05:42:50.749Z,85.60
2019-03-06T05:45:20.785Z,85.48
2019-03-06T05:47:50.934Z,85.45
2019-03-06T05:50:21.398Z,85.50
2019-03-06T05:52:51.287Z,85.44
2019-03-06T05:55:21.215Z,85.44
2019-03-06T05:57:51.299Z,85.33
2019-03-06T06:00:23.273Z,85.33
2019-03-06T06:02:53.191Z,85.24
2019-03-06T06:05:23.122Z,85.14
2019-03-06T06:07:53.050Z,85.12
2019-03-06T06:10:23.231Z,85.05
2019-03-06T06:12:53.446Z,85.01
2019-03-06T06:15:23.414Z,85.06
2019-03-06T06:18:01.626Z,84.70
2019-03-06T06:20:31.570Z,84.67
2019-03-06T06:23:23.837Z,84.67
2019-03-06T06:25:53.715Z,84.56
2019-03-06T06:28:23.578Z,84.47
2019-03-06T06:30:54.085Z,84.22
2019-03-06T06:33:23.942Z,84.13
2019-03-06T06:35:53.793Z,84.03
2019-03-06T06:38:23.727Z,84.01
2019-03-06T06:40:53.644Z,83.97
2019-03-06T06:43:23.488Z,83.78
2019-03-06T06:45:53.780Z,83.59
2019-03-06T06:48:24.927Z,83.31
2019-03-06T06:51:08.083Z,83.03
2019-03-06T06:54:02.327Z,82.89
2019-03-06T06:57:25.365Z,82.76
2019-03-06T07:00:49.645Z,82.61
2019-03-06T07:04:00.719Z,82.64
2019-03-06T07:06:41.390Z,82.47
2019-03-06T07:09:43.167Z,82.42
2019-03-06T07:12:50.293Z,82.21
2019-03-06T07:15:37.897Z,82.07
2019-03-06T07:18:28.777Z,81.80
2019-03-06T07:21:05.028Z,81.73
2019-03-06T07:23:48.672Z,81.65
2019-03-06T07:26:37.506Z,81.71
2019-03-06T07:29:29.499Z,81.46
2019-03-06T07:32:21.846Z,81.45
2019-03-06T07:35:50.808Z,81.40
2019-03-06T07:38:22.041Z,80.87
2019-03-06T07:41:12.693Z,80.45
2019-03-06T07:43:51.328Z,80.42
2019-03-06T07:46:33.662Z,80.39
2019-03-06T07:49:44.440Z,80.33
2019-03-06T07:52:15.467Z,80.47
2019-03-06T07:55:00.860Z,80.47
2019-03-06T07:57:45.623Z,80.34
2019-03-06T08:00:20.432Z,80.00
2019-03-06T08:03:13.512Z,79.79
2019-03-06T08:05:43.461Z,79.67
2019-03-06T08:08:13.443Z,79.31
2019-03-06T08:10:43.305Z,79.12
2019-03-06T08:13:28.391Z,78.95
2019-03-06T08:16:20.423Z,78.73
2019-03-06T08:19:11.369Z,78.59
2019-03-06T08:22:00.159Z,78.39
2019-03-06T08:24:55.131Z,78.09
2019-03-06T08:27:26.425Z,77.15
2019-03-06T08:29:56.429Z,76.40
2019-03-06T08:32:30.392Z,76.42
2019-03-06T08:35:00.372Z,76.72
2019-03-06T08:37:31.468Z,75.74
2019-03-06T08:40:01.322Z,76.07
2019-03-06T08:42:32.622Z,76.09
2019-03-06T08:45:02.865Z,75.89
2019-03-06T08:47:54.684Z,75.69
2019-03-06T08:50:55.713Z,75.26
2019-03-06T08:53:45.489Z,74.65
2019-03-06T08:56:35.771Z,74.47
2019-03-06T08:59:24.974Z,74.02
2019-03-06T09:02:32.210Z,73.46
2019-03-06T09:05:13.064Z,72.53
2019-03-06T09:08:13.870Z,72.38
2019-03-06T09:11:03.324Z,71.06
2019-03-06T09:13:40.813Z,71.18
2019-03-06T09:16:37.992Z,70.88
2019-03-06T09:19:30.008Z,69.95
2019-03-06T09:22:17.829Z,69.93
2019-03-06T09:24:55.313Z,69.66
2019-03-06T09:27:42.900Z,69.00
2019-03-06T09:30:32.395Z,68.83
2019-03-06T09:33:07.862Z,68.70
2019-03-06T09:35:51.250Z,68.57
2019-03-06T09:38:30.213Z,67.39
2019-03-06T09:41:16.259Z,67.78
2019-03-06T09:43:55.126Z,67.08
2019-03-06T09:46:42.671Z,66.52
2019-03-06T09:49:37.679Z,65.99
2019-03-06T09:52:18.636Z,66.30
2019-03-06T09:55:13.431Z,66.03
2019-03-06T09:58:01.060Z,66.03
2019-03-06T10:00:47.658Z,65.55
2019-03-06T10:03:45.751Z,65.55
2019-03-06T10:06:36.546Z,64.70
2019-03-06T10:09:21.417Z,64.65
2019-03-06T10:12:13.268Z,64.06
2019-03-06T10:14:58.619Z,63.29
2019-03-06T10:17:36.121Z,63.95
2019-03-06T10:20:09.611Z,63.71
2019-03-06T10:22:39.535Z,62.95
2019-03-06T10:25:09.851Z,63.51
2019-03-06T10:27:39.825Z,63.30
2019-03-06T10:30:12.733Z,62.75
2019-03-06T10:32:42.891Z,62.94
2019-03-06T10:35:13.318Z,63.07
2019-03-06T10:37:43.458Z,63.25
2019-03-06T10:40:16.059Z,62.86
2019-03-06T10:42:46.109Z,62.48
2019-03-06T10:45:16.600Z,61.35
2019-03-06T10:47:46.887Z,60.96
2019-03-06T10:50:26.224Z,61.06
2019-03-06T10:52:50.116Z,61.30
2019-03-06T10:55:20.482Z,61.11
2019-03-06T10:57:50.482Z,61.57
2019-03-06T11:00:24.286Z,61.50
2019-03-06T11:02:56.779Z,61.49
2019-03-06T11:05:35.651Z,61.93
2019-03-06T11:08:06.688Z,63.07
2019-03-06T11:10:36.778Z,63.45
2019-03-06T11:13:10.817Z,63.01
2019-03-06T11:15:41.997Z,62.40
2019-03-06T11:18:11.985Z,62.22
2019-03-06T11:20:42.300Z,62.10
2019-03-06T11:23:13.072Z,61.82
2019-03-06T11:25:43.613Z,62.17
2019-03-06T11:28:13.847Z,61.98
2019-03-06T11:30:52.599Z,61.21
2019-03-06T11:33:23.761Z,61.47
2019-03-06T11:35:54.823Z,61.21
2019-03-06T11:38:25.546Z,61.05
2019-03-06T11:40:56.005Z,60.66
2019-03-06T11:43:25.924Z,60.94
2019-03-06T11:45:55.883Z,60.86
2019-03-06T11:48:25.910Z,61.13
2019-03-06T11:50:56.833Z,60.97
2019-03-06T11:53:26.814Z,60.83
2019-03-06T11:55:57.912Z,61.12
2019-03-06T11:58:28.259Z,60.84
2019-03-06T12:00:58.376Z,60.91
2019-03-06T12:03:28.643Z,60.67
2019-03-06T12:05:58.818Z,60.18
2019-03-06T12:08:29.015Z,60.74
2019-03-06T12:10:58.950Z,60.86
2019-03-06T12:13:28.872Z,60.93
2019-03-06T12:15:59.063Z,61.05
2019-03-06T12:18:29.607Z,61.70
2019-03-06T12:20:59.535Z,62.44
2019-03-06T12:23:29.774Z,62.37
2019-03-06T12:25:59.707Z,61.71
2019-03-06T12:28:29.669Z,60.93
2019-03-06T12:30:59.898Z,60.33
2019-03-06T12:33:29.838Z,60.12
2019-03-06T12:35:59.764Z,59.98
2019-03-06T12:38:29.708Z,59.85
2019-03-06T12:40:59.632Z,59.36
2019-03-06T12:43:29.557Z,59.34
2019-03-06T12:46:23.592Z,59.72
2019-03-06T12:48:53.361Z,59.73
2019-03-06T12:51:23.789Z,60.25
2019-03-06T12:53:53.750Z,60.82
2019-03-06T12:56:23.672Z,60.20
2019-03-06T12:58:53.962Z,60.64
2019-03-06T13:01:23.949Z,61.44
2019-03-06T13:03:53.877Z,61.75
2019-03-06T13:06:25.105Z,62.69
2019-03-06T13:08:56.424Z,63.60
2019-03-06T13:11:26.638Z,63.97
2019-03-06T13:13:56.568Z,63.81
2019-03-06T13:16:26.833Z,63.58
2019-03-06T13:18:57.435Z,63.66
2019-03-06T13:21:27.372Z,63.51
2019-03-06T13:23:57.314Z,63.97
2019-03-06T13:26:27.261Z,64.72
2019-03-06T13:28:57.851Z,64.67
2019-03-06T13:31:27.890Z,64.59
2019-03-06T13:34:11.578Z,64.17
2019-03-06T13:36:42.305Z,64.28
2019-03-06T13:39:12.221Z,64.69
2019-03-06T13:41:42.357Z,64.74
2019-03-06T13:44:12.384Z,64.86
2019-03-06T13:46:42.382Z,64.30
2019-03-06T13:49:12.742Z,64.30
2019-03-06T13:51:42.685Z,64.00
2019-03-06T13:54:12.659Z,64.01
2019-03-06T13:56:43.077Z,63.94
2019-03-06T13:59:13.010Z,63.78
2019-03-06T14:01:42.920Z,63.95
2019-03-06T14:04:12.844Z,63.86
2019-03-06T14:06:42.768Z,63.68
2019-03-06T14:09:12.461Z,63.63
2019-03-06T14:11:42.395Z,63.31
2019-03-06T14:14:12.310Z,63.90
2019-03-06T14:16:42.344Z,64.61
2019-03-06T14:19:12.270Z,65.01
2019-03-06T14:21:42.201Z,65.81
2019-03-06T14:24:12.059Z,65.56
2019-03-06T14:26:42.025Z,65.99
2019-03-06T14:29:12.653Z,66.07
2019-03-06T14:31:43.092Z,65.90
2019-03-06T14:34:13.200Z,66.01
2019-03-06T14:36:43.135Z,65.87
2019-03-06T14:39:25.037Z,65.54
2019-03-06T14:41:55.542Z,66.00
2019-03-06T14:44:25.462Z,66.11
2019-03-06T14:46:55.382Z,66.50
2019-03-06T14:49:25.635Z,66.74
2019-03-06T14:51:55.727Z,67.48
2019-03-06T14:54:25.870Z,66.69
2019-03-06T14:56:55.785Z,66.76
2019-03-06T14:59:25.734Z,66.17
2019-03-06T15:01:55.685Z,66.03
2019-03-06T15:04:25.603Z,65.66
2019-03-06T15:06:55.544Z,65.50
2019-03-06T15:09:28.991Z,65.78
2019-03-06T15:11:59.268Z,65.71
2019-03-06T15:14:36.283Z,65.91
2019-03-06T15:17:01.304Z,65.38
2019-03-06T15:19:31.231Z,65.86
2019-03-06T15:22:02.389Z,66.16
2019-03-06T15:24:41.019Z,66.20
2019-03-06T15:27:04.055Z,66.09
2019-03-06T15:29:34.299Z,65.77
2019-03-06T15:32:04.262Z,65.69
2019-03-06T15:34:34.195Z,65.40
2019-03-06T15:37:04.115Z,65.25
2019-03-06T15:39:42.679Z,65.26
2019-03-06T15:42:09.270Z,65.22
2019-03-06T15:44:39.425Z,64.93
2019-03-06T15:47:09.890Z,64.92
2019-03-06T15:49:39.826Z,64.81
2019-03-06T15:52:11.591Z,64.61
2019-03-06T15:54:41.606Z,64.48
2019-03-06T15:57:32.743Z,64.31
2019-03-06T16:00:02.680Z,64.14
2019-03-06T16:02:33.775Z,64.08
2019-03-06T16:05:04.112Z,64.22
2019-03-06T16:07:34.093Z,63.96
2019-03-06T16:10:04.584Z,64.06
2019-03-06T16:12:34.702Z,63.45
2019-03-06T16:15:05.346Z,63.44
2019-03-06T16:17:35.596Z,62.97
2019-03-06T16:20:11.621Z,63.26
2019-03-06T16:22:41.682Z,63.30
2019-03-06T16:25:12.113Z,63.29
2019-03-06T16:27:42.363Z,63.89
2019-03-06T16:30:15.797Z,63.83
2019-03-06T16:32:45.724Z,63.89
2019-03-06T16:35:16.527Z,64.05
2019-03-06T16:37:47.704Z,64.20
2019-03-06T16:40:18.934Z,64.24
2019-03-06T16:42:49.463Z,64.22
2019-03-06T16:45:22.048Z,64.47
2019-03-06T16:47:51.970Z,64.43
2019-03-06T16:50:23.544Z,64.58
2019-03-06T16:52:53.750Z,64.79
2019-03-06T16:55:23.983Z,65.09
2019-03-06T16:57:54.422Z,65.30
2019-03-06T17:00:30.058Z,65.26
2019-03-06T17:03:02.303Z,65.29
2019-03-06T17:05:32.677Z,65.43
2019-03-06T17:08:03.476Z,65.32
2019-03-06T17:10:34.519Z,65.46
2019-03-06T17:13:04.640Z,65.78
2019-03-06T17:15:34.985Z,65.98
2019-03-06T17:18:05.194Z,65.95
2019-03-06T17:20:35.779Z,66.11
2019-03-06T17:23:06.736Z,66.00
2019-03-06T17:25:36.929Z,66.04
2019-03-06T17:28:06.978Z,66.16
2019-03-06T17:30:37.589Z,66.44
2019-03-06T17:33:08.783Z,66.61
2019-03-06T17:35:39.206Z,66.53
2019-03-06T17:38:10.067Z,66.82
2019-03-06T17:40:40.265Z,67.01
2019-03-06T17:43:10.817Z,66.95
2019-03-06T17:45:41.282Z,66.84
2019-03-06T17:48:11.665Z,67.43
2019-03-06T17:50:41.687Z,67.46
2019-03-06T17:53:11.561Z,67.71
2019-03-06T17:55:42.080Z,68.00
2019-03-06T17:58:12.016Z,67.93
2019-03-06T18:00:44.800Z,68.66
2019-03-06T18:03:17.761Z,69.56
2019-03-06T18:05:47.667Z,70.69
2019-03-06T18:08:17.612Z,71.30
2019-03-06T18:10:47.539Z,72.77
2019-03-06T18:13:17.410Z,73.08
2019-03-06T18:15:47.340Z,73.38
2019-03-06T18:18:17.521Z,73.62
2019-03-06T18:20:47.665Z,74.09
2019-03-06T18:23:17.615Z,74.24
2019-03-06T18:25:47.645Z,75.02
2019-03-06T18:28:17.573Z,75.11
2019-03-06T18:30:47.473Z,75.98
2019-03-06T18:33:17.487Z,75.56
2019-03-06T18:35:47.743Z,75.87
2019-03-06T18:38:17.683Z,75.52
2019-03-06T18:40:47.786Z,75.71
2019-03-06T18:43:17.736Z,75.63
2019-03-06T18:45:47.952Z,76.07
2019-03-06T18:48:17.904Z,75.80
2019-03-06T18:50:47.752Z,75.79
2019-03-06T18:53:17.711Z,75.89
2019-03-06T18:55:47.627Z,75.53
2019-03-06T18:58:19.378Z,75.38
2019-03-06T19:00:49.432Z,75.25
2019-03-06T19:03:19.761Z,75.14
2019-03-06T19:05:49.630Z,75.15
2019-03-06T19:08:19.679Z,75.23
2019-03-06T19:10:49.756Z,74.80
2019-03-06T19:13:19.671Z,74.89
2019-03-06T19:15:49.635Z,75.24
2019-03-06T19:18:19.579Z,74.87
2019-03-06T19:20:49.616Z,74.62
2019-03-06T19:23:19.923Z,74.64
2019-03-06T19:25:49.885Z,74.63
2019-03-06T19:28:19.806Z,74.17
2019-03-06T19:30:49.648Z,74.40
2019-03-06T19:33:19.487Z,74.87
2019-03-06T19:35:49.687Z,75.34
2019-03-06T19:38:19.609Z,76.09
2019-03-06T19:40:49.635Z,76.53
2019-03-06T19:43:19.586Z,76.21
2019-03-06T19:45:50.258Z,76.00
2019-03-06T19:48:20.198Z,76.28
2019-03-06T19:50:50.503Z,76.25
2019-03-06T19:53:20.633Z,76.83
2019-03-06T19:55:50.838Z,77.03
2019-03-06T19:58:20.777Z,77.72
2019-03-06T20:00:50.972Z,78.17
2019-03-06T20:03:22.147Z,78.52
2019-03-06T20:05:53.930Z,78.59
2019-03-06T20:08:23.883Z,78.26
2019-03-06T20:10:53.793Z,78.24
2019-03-06T20:13:24.334Z,78.21
2019-03-06T20:15:54.305Z,78.60
2019-03-06T20:18:24.807Z,79.17
2019-03-06T20:20:54.898Z,79.57
2019-03-06T20:23:25.419Z,80.25
2019-03-06T20:25:55.461Z,80.76
2019-03-06T20:28:25.489Z,81.17
2019-03-06T20:30:58.666Z,81.58
2019-03-06T20:33:28.894Z,81.95
2019-03-06T20:35:59.510Z,82.22
2019-03-06T20:38:30.033Z,82.40
2019-03-06T20:41:01.321Z,83.10
2019-03-06T20:43:31.358Z,83.50
2019-03-06T20:46:01.575Z,83.82
2019-03-06T20:48:33.203Z,84.13
2019-03-06T20:51:03.222Z,83.98
2019-03-06T20:53:33.229Z,83.71
2019-03-06T20:56:04.280Z,83.43
2019-03-06T20:58:35.706Z,83.62
2019-03-06T21:01:05.979Z,83.91
2019-03-06T21:03:35.975Z,84.17
2019-03-06T21:06:05.911Z,84.44
2019-03-06T21:08:35.975Z,84.51
2019-03-06T21:11:05.960Z,85.00
2019-03-06T21:13:35.795Z,84.95
2019-03-06T21:16:05.729Z,84.62
2019-03-06T21:18:35.568Z,84.13
2019-03-06T21:21:06.088Z,83.95
2019-03-06T21:23:35.925Z,83.81
2019-03-06T21:26:05.832Z,83.55
2019-03-06T21:28:36.046Z,83.13
2019-03-06T21:31:06.224Z,82.68
2019-03-06T21:33:36.459Z,82.52
2019-03-06T21:36:06.564Z,82.14
2019-03-06T21:38:36.756Z,81.94
2019-03-06T21:41:06.686Z,82.22
2019-03-06T21:43:36.562Z,81.97
2019-03-06T21:46:06.554Z,81.89
2019-03-06T21:48:36.564Z,81.96
2019-03-06T21:51:06.545Z,81.94
2019-03-06T21:53:39.154Z,82.06
2019-03-06T21:56:11.453Z,82.24
2019-03-06T21:58:41.206Z,82.36
2019-03-06T22:01:11.086Z,82.58
2019-03-06T22:03:41.360Z,82.97
2019-03-06T22:06:11.381Z,82.98
2019-03-06T22:08:41.495Z,83.00
2019-03-06T22:11:11.406Z,83.33
2019-03-06T22:13:41.631Z,83.32
2019-03-06T22:16:14.621Z,83.48
2019-03-06T22:18:44.607Z,83.91
2019-03-06T22:21:14.433Z,84.43
2019-03-06T22:23:44.291Z,84.52
2019-03-06T22:26:14.212Z,84.62
2019-03-06T22:28:44.630Z,84.59
2019-03-06T22:31:14.623Z,84.33
2019-03-06T22:33:44.676Z,84.12
2019-03-06T22:36:14.685Z,84.15
2019-03-06T22:38:44.874Z,84.19
2019-03-06T22:41:14.807Z,84.25
2019-03-06T22:43:45.224Z,84.45
2019-03-06T22:46:15.099Z,84.70
2019-03-06T22:48:45.068Z,84.92
2019-03-06T22:51:14.975Z,84.83
2019-03-06T22:53:44.819Z,84.79
2019-03-06T22:56:15.027Z,84.90
2019-03-06T22:58:44.928Z,84.93
2019-03-06T23:01:35.000Z,84.58
2019-03-06T23:04:05.640Z,84.60
2019-03-06T23:06:35.692Z,84.52
2019-03-06T23:09:09.348Z,84.76
2019-03-06T23:11:41.556Z,85.13
2019-03-06T23:14:11.538Z,85.09
2019-03-06T23:16:41.468Z,85.33
2019-03-06T23:19:11.451Z,85.34
2019-03-06T23:21:41.291Z,84.86
2019-03-06T23:24:11.252Z,85.10
2019-03-06T23:26:43.055Z,84.98
2019-03-06T23:29:12.966Z,85.28
2019-03-06T23:31:43.300Z,85.50
2019-03-06T23:34:13.300Z,85.66
2019-03-06T23:36:43.155Z,85.77
2019-03-06T23:39:13.519Z,85.83
2019-03-06T23:41:43.386Z,85.90
2019-03-06T23:44:13.593Z,86.17
2019-03-06T23:46:45.199Z,86.13
2019-03-06T23:49:15.415Z,86.08
2019-03-06T23:51:50.229Z,86.28
2019-03-06T23:54:20.201Z,86.50
2019-03-06T23:56:50.364Z,86.97
2019-03-06T23:59:20.442Z,87.49
